sensor_id;sensor_type;location;lat;lon;timestamp;P1;durP1;ratioP1;P2;durP2;ratioP2
75603;SDS011;64187;51.010;13.792;2023-11-19T00:00:33;11.82;;;7.38;;
75603;SDS011;64187;51.010;13.792;2023-11-19T00:05:32;11.73;;;7.18;;
75603;SDS011;64187;51.010;13.792;2023-11-19T00:10:31;12.35;;;7.72;;
75603;SDS011;64187;51.010;13.792;2023-11-19T00:15:30;14.68;;;7.35;;
75603;SDS011;64187;51.010;13.792;2023-11-19T00:20:29;14.07;;;8.05;;
75603;SDS011;64187;51.010;13.792;2023-11-19T00:25:28;13.35;;;7.53;;
75603;SDS011;64187;51.010;13.792;2023-11-19T00:30:27;14.90;;;7.50;;
75603;SDS011;64187;51.010;13.792;2023-11-19T00:35:26;13.55;;;7.75;;
75603;SDS011;64187;51.010;13.792;2023-11-19T00:40:25;16.23;;;7.50;;
75603;SDS011;64187;51.010;13.792;2023-11-19T00:45:24;12.48;;;6.38;;
75603;SDS011;64187;51.010;13.792;2023-11-19T00:50:24;12.75;;;7.47;;
75603;SDS011;64187;51.010;13.792;2023-11-19T00:55:23;11.77;;;6.60;;
75603;SDS011;64187;51.010;13.792;2023-11-19T01:00:22;11.73;;;6.97;;
75603;SDS011;64187;51.010;13.792;2023-11-19T01:05:22;9.13;;;5.32;;
75603;SDS011;64187;51.010;13.792;2023-11-19T01:10:22;9.77;;;5.65;;
75603;SDS011;64187;51.010;13.792;2023-11-19T01:15:21;8.38;;;5.90;;
75603;SDS011;64187;51.010;13.792;2023-11-19T01:20:21;8.98;;;5.50;;
75603;SDS011;64187;51.010;13.792;2023-11-19T01:25:20;8.50;;;4.63;;
75603;SDS011;64187;51.010;13.792;2023-11-19T01:30:19;10.32;;;5.68;;
75603;SDS011;64187;51.010;13.792;2023-11-19T01:35:20;8.38;;;5.03;;
75603;SDS011;64187;51.010;13.792;2023-11-19T01:40:24;9.27;;;5.80;;
75603;SDS011;64187;51.010;13.792;2023-11-19T01:45:27;8.52;;;4.47;;
75603;SDS011;64187;51.010;13.792;2023-11-19T01:50:30;6.45;;;4.15;;
75603;SDS011;64187;51.010;13.792;2023-11-19T01:55:30;7.25;;;4.10;;
75603;SDS011;64187;51.010;13.792;2023-11-19T02:00:29;6.90;;;3.95;;
75603;SDS011;64187;51.010;13.792;2023-11-19T02:05:29;6.60;;;3.67;;
75603;SDS011;64187;51.010;13.792;2023-11-19T02:10:30;6.82;;;3.70;;
75603;SDS011;64187;51.010;13.792;2023-11-19T02:15:31;5.05;;;3.22;;
75603;SDS011;64187;51.010;13.792;2023-11-19T02:20:31;4.38;;;2.90;;
75603;SDS011;64187;51.010;13.792;2023-11-19T02:25:30;2.83;;;2.33;;
75603;SDS011;64187;51.010;13.792;2023-11-19T02:30:31;5.03;;;2.85;;
75603;SDS011;64187;51.010;13.792;2023-11-19T02:35:31;2.40;;;1.40;;
75603;SDS011;64187;51.010;13.792;2023-11-19T02:40:30;2.67;;;1.60;;
75603;SDS011;64187;51.010;13.792;2023-11-19T02:45:29;3.22;;;1.77;;
75603;SDS011;64187;51.010;13.792;2023-11-19T02:50:29;2.95;;;1.92;;
75603;SDS011;64187;51.010;13.792;2023-11-19T02:55:29;2.80;;;1.77;;
75603;SDS011;64187;51.010;13.792;2023-11-19T03:00:34;2.80;;;1.80;;
75603;SDS011;64187;51.010;13.792;2023-11-19T03:05:40;2.80;;;1.70;;
75603;SDS011;64187;51.010;13.792;2023-11-19T03:10:39;2.55;;;1.90;;
75603;SDS011;64187;51.010;13.792;2023-11-19T03:15:38;3.20;;;1.63;;
75603;SDS011;64187;51.010;13.792;2023-11-19T03:20:37;1.92;;;1.60;;
75603;SDS011;64187;51.010;13.792;2023-11-19T03:25:36;2.33;;;1.40;;
75603;SDS011;64187;51.010;13.792;2023-11-19T03:30:35;3.15;;;1.55;;
75603;SDS011;64187;51.010;13.792;2023-11-19T03:35:34;2.17;;;1.40;;
75603;SDS011;64187;51.010;13.792;2023-11-19T03:40:33;4.85;;;2.33;;
75603;SDS011;64187;51.010;13.792;2023-11-19T03:45:32;2.03;;;1.60;;
75603;SDS011;64187;51.010;13.792;2023-11-19T03:50:31;4.20;;;2.30;;
75603;SDS011;64187;51.010;13.792;2023-11-19T03:55:30;3.25;;;2.00;;
75603;SDS011;64187;51.010;13.792;2023-11-19T04:00:30;3.38;;;2.10;;
75603;SDS011;64187;51.010;13.792;2023-11-19T04:05:28;4.93;;;2.50;;
75603;SDS011;64187;51.010;13.792;2023-11-19T04:10:27;4.35;;;2.63;;
75603;SDS011;64187;51.010;13.792;2023-11-19T04:15:27;5.97;;;3.53;;
75603;SDS011;64187;51.010;13.792;2023-11-19T04:20:27;4.65;;;3.42;;
75603;SDS011;64187;51.010;13.792;2023-11-19T04:25:27;4.00;;;2.85;;
75603;SDS011;64187;51.010;13.792;2023-11-19T04:30:26;3.53;;;2.35;;
75603;SDS011;64187;51.010;13.792;2023-11-19T04:35:25;3.50;;;2.45;;
75603;SDS011;64187;51.010;13.792;2023-11-19T04:40:24;4.35;;;2.25;;
75603;SDS011;64187;51.010;13.792;2023-11-19T04:45:23;5.55;;;2.55;;
75603;SDS011;64187;51.010;13.792;2023-11-19T04:50:22;4.05;;;2.65;;
75603;SDS011;64187;51.010;13.792;2023-11-19T04:55:21;4.30;;;2.78;;
75603;SDS011;64187;51.010;13.792;2023-11-19T05:00:20;4.72;;;3.03;;
75603;SDS011;64187;51.010;13.792;2023-11-19T05:05:20;4.95;;;2.50;;
75603;SDS011;64187;51.010;13.792;2023-11-19T05:10:19;4.68;;;3.40;;
75603;SDS011;64187;51.010;13.792;2023-11-19T05:15:18;5.30;;;2.78;;
75603;SDS011;64187;51.010;13.792;2023-11-19T05:20:17;5.05;;;2.92;;
75603;SDS011;64187;51.010;13.792;2023-11-19T05:25:16;5.40;;;2.70;;
75603;SDS011;64187;51.010;13.792;2023-11-19T05:30:15;4.70;;;3.20;;
75603;SDS011;64187;51.010;13.792;2023-11-19T05:35:14;5.22;;;2.83;;
75603;SDS011;64187;51.010;13.792;2023-11-19T05:40:13;6.60;;;3.35;;
75603;SDS011;64187;51.010;13.792;2023-11-19T05:45:16;6.55;;;3.65;;
75603;SDS011;64187;51.010;13.792;2023-11-19T05:50:14;6.35;;;3.70;;
75603;SDS011;64187;51.010;13.792;2023-11-19T05:55:13;5.63;;;3.20;;
75603;SDS011;64187;51.010;13.792;2023-11-19T06:00:12;5.80;;;3.78;;
75603;SDS011;64187;51.010;13.792;2023-11-19T06:10:17;6.75;;;4.15;;
75603;SDS011;64187;51.010;13.792;2023-11-19T06:15:15;4.88;;;3.85;;
75603;SDS011;64187;51.010;13.792;2023-11-19T06:20:14;5.88;;;3.67;;
75603;SDS011;64187;51.010;13.792;2023-11-19T06:25:13;6.38;;;3.75;;
75603;SDS011;64187;51.010;13.792;2023-11-19T06:30:13;7.07;;;4.05;;
75603;SDS011;64187;51.010;13.792;2023-11-19T06:35:12;5.03;;;3.13;;
75603;SDS011;64187;51.010;13.792;2023-11-19T06:40:12;4.90;;;3.00;;
75603;SDS011;64187;51.010;13.792;2023-11-19T06:45:11;4.35;;;2.90;;
75603;SDS011;64187;51.010;13.792;2023-11-19T06:50:10;4.70;;;2.92;;
75603;SDS011;64187;51.010;13.792;2023-11-19T06:55:10;4.25;;;2.70;;
75603;SDS011;64187;51.010;13.792;2023-11-19T07:00:09;4.22;;;2.50;;
75603;SDS011;64187;51.010;13.792;2023-11-19T07:05:09;4.10;;;2.20;;
75603;SDS011;64187;51.010;13.792;2023-11-19T07:10:10;3.75;;;2.20;;
75603;SDS011;64187;51.010;13.792;2023-11-19T07:15:09;3.70;;;2.47;;
75603;SDS011;64187;51.010;13.792;2023-11-19T07:20:08;4.38;;;2.47;;
75603;SDS011;64187;51.010;13.792;2023-11-19T07:25:08;4.40;;;2.20;;
75603;SDS011;64187;51.010;13.792;2023-11-19T07:30:07;4.13;;;2.38;;
75603;SDS011;64187;51.010;13.792;2023-11-19T07:35:06;4.97;;;2.65;;
75603;SDS011;64187;51.010;13.792;2023-11-19T07:40:06;4.53;;;2.38;;
75603;SDS011;64187;51.010;13.792;2023-11-19T07:45:05;3.50;;;2.72;;
75603;SDS011;64187;51.010;13.792;2023-11-19T07:50:05;4.57;;;2.28;;
75603;SDS011;64187;51.010;13.792;2023-11-19T07:55:05;3.05;;;2.13;;
75603;SDS011;64187;51.010;13.792;2023-11-19T08:00:04;3.47;;;1.90;;
75603;SDS011;64187;51.010;13.792;2023-11-19T08:05:10;3.08;;;2.35;;
75603;SDS011;64187;51.010;13.792;2023-11-19T08:10:09;3.20;;;2.30;;
75603;SDS011;64187;51.010;13.792;2023-11-19T08:15:08;3.70;;;2.33;;
75603;SDS011;64187;51.010;13.792;2023-11-19T08:20:08;3.63;;;2.22;;
75603;SDS011;64187;51.010;13.792;2023-11-19T08:25:09;3.40;;;2.53;;
75603;SDS011;64187;51.010;13.792;2023-11-19T08:30:08;3.17;;;2.20;;
75603;SDS011;64187;51.010;13.792;2023-11-19T08:35:07;4.82;;;2.05;;
75603;SDS011;64187;51.010;13.792;2023-11-19T08:40:07;4.78;;;2.83;;
75603;SDS011;64187;51.010;13.792;2023-11-19T08:45:06;5.28;;;2.35;;
75603;SDS011;64187;51.010;13.792;2023-11-19T08:50:09;3.70;;;2.20;;
75603;SDS011;64187;51.010;13.792;2023-11-19T08:55:08;4.80;;;2.40;;
75603;SDS011;64187;51.010;13.792;2023-11-19T09:00:08;3.28;;;2.22;;
75603;SDS011;64187;51.010;13.792;2023-11-19T09:05:07;4.15;;;2.35;;
75603;SDS011;64187;51.010;13.792;2023-11-19T09:10:06;3.42;;;2.58;;
75603;SDS011;64187;51.010;13.792;2023-11-19T09:15:07;3.78;;;2.20;;
75603;SDS011;64187;51.010;13.792;2023-11-19T09:20:09;4.28;;;2.80;;
75603;SDS011;64187;51.010;13.792;2023-11-19T09:25:11;3.83;;;3.03;;
75603;SDS011;64187;51.010;13.792;2023-11-19T09:30:10;3.83;;;2.28;;
75603;SDS011;64187;51.010;13.792;2023-11-19T09:35:09;4.68;;;2.60;;
75603;SDS011;64187;51.010;13.792;2023-11-19T09:40:12;5.43;;;3.67;;
75603;SDS011;64187;51.010;13.792;2023-11-19T09:45:14;8.18;;;3.05;;
75603;SDS011;64187;51.010;13.792;2023-11-19T09:50:16;3.40;;;2.35;;
75603;SDS011;64187;51.010;13.792;2023-11-19T09:55:18;3.85;;;2.38;;
75603;SDS011;64187;51.010;13.792;2023-11-19T10:00:18;6.13;;;3.47;;
75603;SDS011;64187;51.010;13.792;2023-11-19T10:05:19;3.65;;;2.05;;
75603;SDS011;64187;51.010;13.792;2023-11-19T10:10:19;1.88;;;1.23;;
75603;SDS011;64187;51.010;13.792;2023-11-19T10:15:21;1.58;;;0.60;;
75603;SDS011;64187;51.010;13.792;2023-11-19T10:20:21;1.88;;;0.70;;
75603;SDS011;64187;51.010;13.792;2023-11-19T10:30:26;1.95;;;0.70;;
75603;SDS011;64187;51.010;13.792;2023-11-19T10:35:27;1.80;;;0.80;;
75603;SDS011;64187;51.010;13.792;2023-11-19T10:40:47;1.30;;;0.60;;
75603;SDS011;64187;51.010;13.792;2023-11-19T10:45:45;2.25;;;0.75;;
75603;SDS011;64187;51.010;13.792;2023-11-19T10:50:44;2.47;;;0.70;;
75603;SDS011;64187;51.010;13.792;2023-11-19T10:55:46;1.33;;;0.50;;
75603;SDS011;64187;51.010;13.792;2023-11-19T11:00:56;1.77;;;0.40;;
75603;SDS011;64187;51.010;13.792;2023-11-19T11:05:59;2.25;;;0.65;;
75603;SDS011;64187;51.010;13.792;2023-11-19T11:11:02;1.60;;;0.68;;
75603;SDS011;64187;51.010;13.792;2023-11-19T11:16:03;1.23;;;0.40;;
75603;SDS011;64187;51.010;13.792;2023-11-19T11:21:07;1.08;;;0.47;;
75603;SDS011;64187;51.010;13.792;2023-11-19T11:37:26;1.40;;;0.50;;
75603;SDS011;64187;51.010;13.792;2023-11-19T11:42:36;1.58;;;0.80;;
75603;SDS011;64187;51.010;13.792;2023-11-19T11:48:19;2.03;;;0.35;;
75603;SDS011;64187;51.010;13.792;2023-11-19T11:57:56;4.10;;;0.93;;
75603;SDS011;64187;51.010;13.792;2023-11-19T12:02:56;2.25;;;0.88;;
75603;SDS011;64187;51.010;13.792;2023-11-19T12:12:59;4.97;;;1.30;;
75603;SDS011;64187;51.010;13.792;2023-11-19T12:17:59;7.75;;;1.20;;
75603;SDS011;64187;51.010;13.792;2023-11-19T12:22:58;4.57;;;0.93;;
75603;SDS011;64187;51.010;13.792;2023-11-19T12:28:04;1.83;;;0.80;;
75603;SDS011;64187;51.010;13.792;2023-11-19T12:33:11;5.55;;;0.90;;
75603;SDS011;64187;51.010;13.792;2023-11-19T12:38:20;4.13;;;0.88;;
75603;SDS011;64187;51.010;13.792;2023-11-19T12:43:22;5.10;;;1.17;;
75603;SDS011;64187;51.010;13.792;2023-11-19T12:48:21;3.05;;;1.00;;
75603;SDS011;64187;51.010;13.792;2023-11-19T12:53:21;5.72;;;1.67;;
75603;SDS011;64187;51.010;13.792;2023-11-19T12:58:28;3.92;;;1.23;;
75603;SDS011;64187;51.010;13.792;2023-11-19T13:03:35;4.85;;;0.90;;
75603;SDS011;64187;51.010;13.792;2023-11-19T13:13:56;6.57;;;1.40;;
75603;SDS011;64187;51.010;13.792;2023-11-19T13:18:59;10.05;;;1.60;;
75603;SDS011;64187;51.010;13.792;2023-11-19T13:23:58;6.57;;;1.48;;
75603;SDS011;64187;51.010;13.792;2023-11-19T13:28:57;6.35;;;1.50;;
75603;SDS011;64187;51.010;13.792;2023-11-19T13:33:56;5.10;;;1.50;;
75603;SDS011;64187;51.010;13.792;2023-11-19T13:38:57;6.22;;;1.52;;
75603;SDS011;64187;51.010;13.792;2023-11-19T13:43:58;6.03;;;1.60;;
75603;SDS011;64187;51.010;13.792;2023-11-19T13:48:57;4.50;;;1.73;;
75603;SDS011;64187;51.010;13.792;2023-11-19T13:53:56;9.50;;;2.45;;
75603;SDS011;64187;51.010;13.792;2023-11-19T13:58:56;7.55;;;1.25;;
75603;SDS011;64187;51.010;13.792;2023-11-19T14:03:54;7.93;;;1.35;;
75603;SDS011;64187;51.010;13.792;2023-11-19T14:08:53;6.85;;;1.33;;
75603;SDS011;64187;51.010;13.792;2023-11-19T14:13:52;5.75;;;1.25;;
75603;SDS011;64187;51.010;13.792;2023-11-19T14:18:51;7.63;;;1.95;;
75603;SDS011;64187;51.010;13.792;2023-11-19T14:23:50;8.20;;;1.50;;
75603;SDS011;64187;51.010;13.792;2023-11-19T14:28:49;5.22;;;1.10;;
75603;SDS011;64187;51.010;13.792;2023-11-19T14:33:50;7.18;;;1.45;;
75603;SDS011;64187;51.010;13.792;2023-11-19T14:38:50;8.38;;;1.50;;
75603;SDS011;64187;51.010;13.792;2023-11-19T14:43:49;6.68;;;1.63;;
75603;SDS011;64187;51.010;13.792;2023-11-19T14:48:48;4.55;;;1.35;;
75603;SDS011;64187;51.010;13.792;2023-11-19T14:53:47;9.90;;;2.13;;
75603;SDS011;64187;51.010;13.792;2023-11-19T14:58:45;3.03;;;0.90;;
75603;SDS011;64187;51.010;13.792;2023-11-19T15:03:44;8.48;;;1.73;;
75603;SDS011;64187;51.010;13.792;2023-11-19T15:08:46;8.13;;;2.35;;
75603;SDS011;64187;51.010;13.792;2023-11-19T15:13:45;7.47;;;1.67;;
75603;SDS011;64187;51.010;13.792;2023-11-19T15:18:44;7.13;;;1.50;;
75603;SDS011;64187;51.010;13.792;2023-11-19T15:23:42;5.32;;;1.30;;
75603;SDS011;64187;51.010;13.792;2023-11-19T15:28:41;8.73;;;1.75;;
75603;SDS011;64187;51.010;13.792;2023-11-19T15:33:40;6.97;;;1.90;;
75603;SDS011;64187;51.010;13.792;2023-11-19T15:38:39;4.55;;;1.45;;
75603;SDS011;64187;51.010;13.792;2023-11-19T15:43:41;7.65;;;1.70;;
75603;SDS011;64187;51.010;13.792;2023-11-19T15:48:40;12.27;;;2.08;;
75603;SDS011;64187;51.010;13.792;2023-11-19T15:53:39;5.25;;;1.60;;
75603;SDS011;64187;51.010;13.792;2023-11-19T15:58:38;6.47;;;2.30;;
75603;SDS011;64187;51.010;13.792;2023-11-19T16:03:38;6.70;;;1.67;;
75603;SDS011;64187;51.010;13.792;2023-11-19T16:08:40;6.82;;;1.38;;
75603;SDS011;64187;51.010;13.792;2023-11-19T16:13:39;6.43;;;1.70;;
75603;SDS011;64187;51.010;13.792;2023-11-19T16:18:38;4.63;;;1.42;;
75603;SDS011;64187;51.010;13.792;2023-11-19T16:23:37;6.55;;;1.55;;
75603;SDS011;64187;51.010;13.792;2023-11-19T16:28:36;6.57;;;1.80;;
75603;SDS011;64187;51.010;13.792;2023-11-19T16:33:35;7.95;;;1.90;;
75603;SDS011;64187;51.010;13.792;2023-11-19T16:38:33;9.15;;;1.35;;
75603;SDS011;64187;51.010;13.792;2023-11-19T16:43:33;7.20;;;1.70;;
75603;SDS011;64187;51.010;13.792;2023-11-19T16:48:32;7.32;;;1.70;;
75603;SDS011;64187;51.010;13.792;2023-11-19T16:53:31;6.13;;;1.52;;
75603;SDS011;64187;51.010;13.792;2023-11-19T16:58:31;10.05;;;1.80;;
75603;SDS011;64187;51.010;13.792;2023-11-19T17:03:30;5.35;;;1.80;;
75603;SDS011;64187;51.010;13.792;2023-11-19T17:08:29;7.05;;;1.52;;
75603;SDS011;64187;51.010;13.792;2023-11-19T17:13:30;8.75;;;1.63;;
75603;SDS011;64187;51.010;13.792;2023-11-19T17:18:29;8.70;;;1.88;;
75603;SDS011;64187;51.010;13.792;2023-11-19T17:23:28;6.25;;;1.50;;
75603;SDS011;64187;51.010;13.792;2023-11-19T17:28:27;6.32;;;1.35;;
75603;SDS011;64187;51.010;13.792;2023-11-19T17:33:26;7.00;;;1.27;;
75603;SDS011;64187;51.010;13.792;2023-11-19T17:38:25;8.50;;;2.55;;
75603;SDS011;64187;51.010;13.792;2023-11-19T17:43:25;7.45;;;1.83;;
75603;SDS011;64187;51.010;13.792;2023-11-19T17:48:24;6.43;;;1.85;;
75603;SDS011;64187;51.010;13.792;2023-11-19T17:53:23;6.05;;;1.33;;
75603;SDS011;64187;51.010;13.792;2023-11-19T17:58:22;4.55;;;2.00;;
75603;SDS011;64187;51.010;13.792;2023-11-19T18:03:21;5.93;;;1.38;;
75603;SDS011;64187;51.010;13.792;2023-11-19T18:08:20;9.68;;;1.48;;
75603;SDS011;64187;51.010;13.792;2023-11-19T18:13:21;8.43;;;1.38;;
75603;SDS011;64187;51.010;13.792;2023-11-19T18:18:20;8.18;;;1.75;;
75603;SDS011;64187;51.010;13.792;2023-11-19T18:23:20;8.73;;;1.60;;
75603;SDS011;64187;51.010;13.792;2023-11-19T18:28:19;7.60;;;1.30;;
75603;SDS011;64187;51.010;13.792;2023-11-19T18:33:18;5.57;;;1.00;;
75603;SDS011;64187;51.010;13.792;2023-11-19T18:38:17;7.10;;;1.17;;
75603;SDS011;64187;51.010;13.792;2023-11-19T18:43:16;5.97;;;1.80;;
75603;SDS011;64187;51.010;13.792;2023-11-19T18:48:14;7.95;;;1.90;;
75603;SDS011;64187;51.010;13.792;2023-11-19T18:53:13;5.38;;;1.10;;
75603;SDS011;64187;51.010;13.792;2023-11-19T18:58:12;5.43;;;1.10;;
75603;SDS011;64187;51.010;13.792;2023-11-19T19:03:11;6.30;;;1.30;;
75603;SDS011;64187;51.010;13.792;2023-11-19T19:08:12;6.05;;;1.70;;
75603;SDS011;64187;51.010;13.792;2023-11-19T19:13:11;7.78;;;1.80;;
75603;SDS011;64187;51.010;13.792;2023-11-19T19:18:10;7.97;;;1.52;;
75603;SDS011;64187;51.010;13.792;2023-11-19T19:23:09;4.47;;;1.25;;
75603;SDS011;64187;51.010;13.792;2023-11-19T19:28:09;7.70;;;1.50;;
75603;SDS011;64187;51.010;13.792;2023-11-19T19:33:11;5.93;;;1.40;;
75603;SDS011;64187;51.010;13.792;2023-11-19T19:38:10;6.95;;;1.50;;
75603;SDS011;64187;51.010;13.792;2023-11-19T19:43:09;4.72;;;1.20;;
75603;SDS011;64187;51.010;13.792;2023-11-19T19:48:08;6.13;;;1.20;;
75603;SDS011;64187;51.010;13.792;2023-11-19T19:53:08;8.30;;;1.58;;
75603;SDS011;64187;51.010;13.792;2023-11-19T19:58:09;4.13;;;1.27;;
75603;SDS011;64187;51.010;13.792;2023-11-19T20:03:10;5.53;;;1.30;;
75603;SDS011;64187;51.010;13.792;2023-11-19T20:08:09;4.82;;;1.88;;
75603;SDS011;64187;51.010;13.792;2023-11-19T20:13:08;4.90;;;1.40;;
75603;SDS011;64187;51.010;13.792;2023-11-19T20:18:07;4.47;;;1.25;;
75603;SDS011;64187;51.010;13.792;2023-11-19T20:23:09;6.93;;;1.77;;
75603;SDS011;64187;51.010;13.792;2023-11-19T20:28:08;3.45;;;0.80;;
75603;SDS011;64187;51.010;13.792;2023-11-19T20:33:06;4.88;;;1.25;;
75603;SDS011;64187;51.010;13.792;2023-11-19T20:38:05;4.13;;;1.10;;
75603;SDS011;64187;51.010;13.792;2023-11-19T20:43:04;7.22;;;1.58;;
75603;SDS011;64187;51.010;13.792;2023-11-19T20:48:03;5.75;;;1.20;;
75603;SDS011;64187;51.010;13.792;2023-11-19T20:53:03;5.55;;;1.25;;
75603;SDS011;64187;51.010;13.792;2023-11-19T20:58:02;4.93;;;0.90;;
75603;SDS011;64187;51.010;13.792;2023-11-19T21:03:05;2.15;;;0.70;;
75603;SDS011;64187;51.010;13.792;2023-11-19T21:08:26;5.68;;;1.08;;
75603;SDS011;64187;51.010;13.792;2023-11-19T21:13:26;6.80;;;0.80;;
75603;SDS011;64187;51.010;13.792;2023-11-19T21:18:25;6.05;;;1.20;;
75603;SDS011;64187;51.010;13.792;2023-11-19T21:23:24;6.28;;;1.45;;
75603;SDS011;64187;51.010;13.792;2023-11-19T21:28:23;8.40;;;1.50;;
75603;SDS011;64187;51.010;13.792;2023-11-19T21:33:25;5.88;;;1.35;;
75603;SDS011;64187;51.010;13.792;2023-11-19T21:38:25;4.50;;;0.90;;
75603;SDS011;64187;51.010;13.792;2023-11-19T21:43:24;5.57;;;1.33;;
75603;SDS011;64187;51.010;13.792;2023-11-19T21:48:23;4.70;;;1.35;;
75603;SDS011;64187;51.010;13.792;2023-11-19T21:53:22;7.03;;;1.05;;
75603;SDS011;64187;51.010;13.792;2023-11-19T21:58:21;5.80;;;1.10;;
75603;SDS011;64187;51.010;13.792;2023-11-19T22:03:21;4.40;;;0.73;;
75603;SDS011;64187;51.010;13.792;2023-11-19T22:08:21;4.95;;;0.93;;
75603;SDS011;64187;51.010;13.792;2023-11-19T22:13:20;6.78;;;1.25;;
75603;SDS011;64187;51.010;13.792;2023-11-19T22:18:19;7.75;;;1.33;;
75603;SDS011;64187;51.010;13.792;2023-11-19T22:23:18;2.72;;;1.10;;
75603;SDS011;64187;51.010;13.792;2023-11-19T22:28:17;4.60;;;0.82;;
75603;SDS011;64187;51.010;13.792;2023-11-19T22:33:16;3.40;;;1.23;;
75603;SDS011;64187;51.010;13.792;2023-11-19T22:38:15;5.60;;;1.05;;
75603;SDS011;64187;51.010;13.792;2023-11-19T22:43:14;6.47;;;1.63;;
75603;SDS011;64187;51.010;13.792;2023-11-19T22:48:13;3.65;;;1.50;;
75603;SDS011;64187;51.010;13.792;2023-11-19T22:53:12;6.55;;;1.58;;
75603;SDS011;64187;51.010;13.792;2023-11-19T22:58:10;6.32;;;1.10;;
75603;SDS011;64187;51.010;13.792;2023-11-19T23:03:09;4.38;;;1.10;;
75603;SDS011;64187;51.010;13.792;2023-11-19T23:08:08;5.57;;;1.00;;
75603;SDS011;64187;51.010;13.792;2023-11-19T23:13:09;6.18;;;1.67;;
75603;SDS011;64187;51.010;13.792;2023-11-19T23:18:08;5.45;;;1.02;;
75603;SDS011;64187;51.010;13.792;2023-11-19T23:23:07;6.80;;;1.13;;
75603;SDS011;64187;51.010;13.792;2023-11-19T23:28:07;6.72;;;0.93;;
75603;SDS011;64187;51.010;13.792;2023-11-19T23:33:06;4.28;;;0.77;;
75603;SDS011;64187;51.010;13.792;2023-11-19T23:38:06;4.68;;;1.05;;
75603;SDS011;64187;51.010;13.792;2023-11-19T23:43:06;8.45;;;1.40;;
75603;SDS011;64187;51.010;13.792;2023-11-19T23:48:05;9.45;;;1.52;;
75603;SDS011;64187;51.010;13.792;2023-11-19T23:53:04;5.80;;;1.20;;
75603;SDS011;64187;51.010;13.792;2023-11-19T23:58:07;6.93;;;1.35;;
